sensor_id;sensor_type;location;lat;lon;timestamp;temperature;humidity
11043;DHT22;5574;48.786;10.120;2023-05-10T00:01:47;15.40;99.90
11043;DHT22;5574;48.786;10.120;2023-05-10T00:04:14;15.40;99.90
11043;DHT22;5574;48.786;10.120;2023-05-10T00:06:41;15.30;99.90
11043;DHT22;5574;48.786;10.120;2023-05-10T00:09:07;15.30;99.90
11043;DHT22;5574;48.786;10.120;2023-05-10T00:11:34;15.30;99.90
11043;DHT22;5574;48.786;10.120;2023-05-10T00:14:02;15.20;99.90
11043;DHT22;5574;48.786;10.120;2023-05-10T00:16:29;15.20;99.90
11043;DHT22;5574;48.786;10.120;2023-05-10T00:18:55;15.20;99.90
11043;DHT22;5574;48.786;10.120;2023-05-10T00:21:22;15.20;99.90
11043;DHT22;5574;48.786;10.120;2023-05-10T00:23:49;15.30;99.90
11043;DHT22;5574;48.786;10.120;2023-05-10T00:26:15;15.20;99.90
11043;DHT22;5574;48.786;10.120;2023-05-10T00:28:42;15.20;99.90
11043;DHT22;5574;48.786;10.120;2023-05-10T00:31:10;15.20;99.90
11043;DHT22;5574;48.786;10.120;2023-05-10T00:33:37;15.20;99.90
11043;DHT22;5574;48.786;10.120;2023-05-10T00:36:04;15.20;99.90
11043;DHT22;5574;48.786;10.120;2023-05-10T00:38:32;15.20;99.90
11043;DHT22;5574;48.786;10.120;2023-05-10T00:40:59;15.20;99.90
11043;DHT22;5574;48.786;10.120;2023-05-10T00:43:26;15.20;99.90
11043;DHT22;5574;48.786;10.120;2023-05-10T00:45:53;15.20;99.90
11043;DHT22;5574;48.786;10.120;2023-05-10T00:48:21;15.20;99.90
11043;DHT22;5574;48.786;10.120;2023-05-10T00:50:48;15.20;99.90
11043;DHT22;5574;48.786;10.120;2023-05-10T00:53:15;15.20;99.90
11043;DHT22;5574;48.786;10.120;2023-05-10T00:55:42;15.20;99.90
11043;DHT22;5574;48.786;10.120;2023-05-10T00:58:09;15.10;99.90
11043;DHT22;5574;48.786;10.120;2023-05-10T01:00:36;15.10;99.90
11043;DHT22;5574;48.786;10.120;2023-05-10T01:03:04;15.00;99.90
11043;DHT22;5574;48.786;10.120;2023-05-10T01:05:32;14.90;99.90
11043;DHT22;5574;48.786;10.120;2023-05-10T01:07:59;14.80;99.90
11043;DHT22;5574;48.786;10.120;2023-05-10T01:10:25;14.70;99.90
11043;DHT22;5574;48.786;10.120;2023-05-10T01:13:06;14.70;99.90
11043;DHT22;5574;48.786;10.120;2023-05-10T01:15:33;14.60;99.90
11043;DHT22;5574;48.786;10.120;2023-05-10T01:18:00;14.60;99.90
11043;DHT22;5574;48.786;10.120;2023-05-10T01:20:32;14.60;99.90
11043;DHT22;5574;48.786;10.120;2023-05-10T01:23:21;14.60;99.90
11043;DHT22;5574;48.786;10.120;2023-05-10T01:26:19;14.60;99.90
11043;DHT22;5574;48.786;10.120;2023-05-10T01:29:11;14.60;99.90
11043;DHT22;5574;48.786;10.120;2023-05-10T01:32:14;14.70;99.90
11043;DHT22;5574;48.786;10.120;2023-05-10T01:34:46;14.70;99.90
11043;DHT22;5574;48.786;10.120;2023-05-10T01:37:19;14.80;99.90
11043;DHT22;5574;48.786;10.120;2023-05-10T01:39:50;14.70;99.90
11043;DHT22;5574;48.786;10.120;2023-05-10T01:42:21;14.80;99.90
11043;DHT22;5574;48.786;10.120;2023-05-10T01:44:53;14.80;99.90
11043;DHT22;5574;48.786;10.120;2023-05-10T01:47:30;14.80;99.90
11043;DHT22;5574;48.786;10.120;2023-05-10T01:50:02;14.70;99.90
11043;DHT22;5574;48.786;10.120;2023-05-10T01:52:33;14.70;99.90
11043;DHT22;5574;48.786;10.120;2023-05-10T01:55:02;14.70;99.90
11043;DHT22;5574;48.786;10.120;2023-05-10T01:57:33;14.70;99.90
11043;DHT22;5574;48.786;10.120;2023-05-10T02:00:01;14.60;99.90
11043;DHT22;5574;48.786;10.120;2023-05-10T02:02:30;14.60;99.90
11043;DHT22;5574;48.786;10.120;2023-05-10T02:04:59;14.50;99.90
11043;DHT22;5574;48.786;10.120;2023-05-10T02:07:27;14.50;99.90
11043;DHT22;5574;48.786;10.120;2023-05-10T02:09:55;14.50;99.90
11043;DHT22;5574;48.786;10.120;2023-05-10T02:12:23;14.50;99.90
11043;DHT22;5574;48.786;10.120;2023-05-10T02:14:51;14.40;99.90
11043;DHT22;5574;48.786;10.120;2023-05-10T02:17:19;14.40;99.90
11043;DHT22;5574;48.786;10.120;2023-05-10T02:19:48;14.40;99.90
11043;DHT22;5574;48.786;10.120;2023-05-10T02:22:16;14.40;99.90
11043;DHT22;5574;48.786;10.120;2023-05-10T02:24:44;14.40;99.90
11043;DHT22;5574;48.786;10.120;2023-05-10T02:27:14;14.30;99.90
11043;DHT22;5574;48.786;10.120;2023-05-10T02:29:41;14.30;99.90
11043;DHT22;5574;48.786;10.120;2023-05-10T02:32:09;14.30;99.90
11043;DHT22;5574;48.786;10.120;2023-05-10T02:34:38;14.30;99.90
11043;DHT22;5574;48.786;10.120;2023-05-10T02:37:06;14.30;99.90
11043;DHT22;5574;48.786;10.120;2023-05-10T02:39:34;14.30;99.90
11043;DHT22;5574;48.786;10.120;2023-05-10T02:42:01;14.20;99.90
11043;DHT22;5574;48.786;10.120;2023-05-10T02:44:29;14.20;99.90
11043;DHT22;5574;48.786;10.120;2023-05-10T02:46:57;14.20;99.90
11043;DHT22;5574;48.786;10.120;2023-05-10T02:49:24;14.20;99.90
11043;DHT22;5574;48.786;10.120;2023-05-10T02:51:56;14.10;99.90
11043;DHT22;5574;48.786;10.120;2023-05-10T02:54:29;14.10;99.90
11043;DHT22;5574;48.786;10.120;2023-05-10T02:56:58;14.10;99.90
11043;DHT22;5574;48.786;10.120;2023-05-10T02:59:26;14.00;99.90
11043;DHT22;5574;48.786;10.120;2023-05-10T03:01:52;14.00;99.90
11043;DHT22;5574;48.786;10.120;2023-05-10T03:04:19;14.00;99.90
11043;DHT22;5574;48.786;10.120;2023-05-10T03:06:46;13.90;99.90
11043;DHT22;5574;48.786;10.120;2023-05-10T03:09:14;13.90;99.90
11043;DHT22;5574;48.786;10.120;2023-05-10T03:11:55;13.90;99.90
11043;DHT22;5574;48.786;10.120;2023-05-10T03:14:32;13.80;99.90
11043;DHT22;5574;48.786;10.120;2023-05-10T03:17:06;13.80;99.90
11043;DHT22;5574;48.786;10.120;2023-05-10T03:19:43;13.80;99.90
11043;DHT22;5574;48.786;10.120;2023-05-10T03:22:11;13.90;99.90
11043;DHT22;5574;48.786;10.120;2023-05-10T03:24:39;13.80;99.90
11043;DHT22;5574;48.786;10.120;2023-05-10T03:27:09;13.80;99.90
11043;DHT22;5574;48.786;10.120;2023-05-10T03:29:37;13.80;99.90
11043;DHT22;5574;48.786;10.120;2023-05-10T03:32:04;13.80;99.90
11043;DHT22;5574;48.786;10.120;2023-05-10T03:34:31;13.80;99.90
11043;DHT22;5574;48.786;10.120;2023-05-10T03:36:58;13.80;99.90
11043;DHT22;5574;48.786;10.120;2023-05-10T03:39:25;13.70;99.90
11043;DHT22;5574;48.786;10.120;2023-05-10T03:41:51;13.80;99.90
11043;DHT22;5574;48.786;10.120;2023-05-10T03:44:19;13.70;99.90
11043;DHT22;5574;48.786;10.120;2023-05-10T03:46:46;13.70;99.90
11043;DHT22;5574;48.786;10.120;2023-05-10T03:49:13;13.70;99.90
11043;DHT22;5574;48.786;10.120;2023-05-10T03:51:39;13.60;99.90
11043;DHT22;5574;48.786;10.120;2023-05-10T03:54:06;13.60;99.90
11043;DHT22;5574;48.786;10.120;2023-05-10T03:56:33;13.60;99.90
11043;DHT22;5574;48.786;10.120;2023-05-10T03:58:59;13.60;99.90
11043;DHT22;5574;48.786;10.120;2023-05-10T04:01:27;13.60;99.90
11043;DHT22;5574;48.786;10.120;2023-05-10T04:03:54;13.60;99.90
11043;DHT22;5574;48.786;10.120;2023-05-10T04:06:21;13.60;99.90
11043;DHT22;5574;48.786;10.120;2023-05-10T04:08:48;13.60;99.90
11043;DHT22;5574;48.786;10.120;2023-05-10T04:11:15;13.60;99.90
11043;DHT22;5574;48.786;10.120;2023-05-10T04:13:41;13.60;99.90
11043;DHT22;5574;48.786;10.120;2023-05-10T04:16:09;13.60;99.90
11043;DHT22;5574;48.786;10.120;2023-05-10T04:18:37;13.60;99.90
11043;DHT22;5574;48.786;10.120;2023-05-10T04:21:10;13.70;99.90
11043;DHT22;5574;48.786;10.120;2023-05-10T04:23:37;13.70;99.90
11043;DHT22;5574;48.786;10.120;2023-05-10T04:26:03;13.60;99.90
11043;DHT22;5574;48.786;10.120;2023-05-10T04:28:30;13.70;99.90
11043;DHT22;5574;48.786;10.120;2023-05-10T04:31:01;13.70;99.90
11043;DHT22;5574;48.786;10.120;2023-05-10T04:33:28;13.70;99.90
11043;DHT22;5574;48.786;10.120;2023-05-10T04:35:56;13.70;99.90
11043;DHT22;5574;48.786;10.120;2023-05-10T04:38:22;13.70;99.90
11043;DHT22;5574;48.786;10.120;2023-05-10T04:40:49;13.70;99.90
11043;DHT22;5574;48.786;10.120;2023-05-10T04:43:16;13.70;99.90
11043;DHT22;5574;48.786;10.120;2023-05-10T04:45:43;13.70;99.90
11043;DHT22;5574;48.786;10.120;2023-05-10T04:48:10;13.70;99.90
11043;DHT22;5574;48.786;10.120;2023-05-10T04:50:36;13.70;99.90
11043;DHT22;5574;48.786;10.120;2023-05-10T04:53:04;13.70;99.90
11043;DHT22;5574;48.786;10.120;2023-05-10T04:55:31;13.70;99.90
11043;DHT22;5574;48.786;10.120;2023-05-10T04:57:58;13.70;99.90
11043;DHT22;5574;48.786;10.120;2023-05-10T05:00:26;13.60;99.90
11043;DHT22;5574;48.786;10.120;2023-05-10T05:02:52;13.70;99.90
11043;DHT22;5574;48.786;10.120;2023-05-10T05:05:19;13.70;99.90
11043;DHT22;5574;48.786;10.120;2023-05-10T05:07:46;13.70;99.90
11043;DHT22;5574;48.786;10.120;2023-05-10T05:10:14;13.70;99.90
11043;DHT22;5574;48.786;10.120;2023-05-10T05:12:40;13.80;99.90
11043;DHT22;5574;48.786;10.120;2023-05-10T05:15:08;13.80;99.90
11043;DHT22;5574;48.786;10.120;2023-05-10T05:17:35;13.80;99.90
11043;DHT22;5574;48.786;10.120;2023-05-10T05:20:02;13.80;99.90
11043;DHT22;5574;48.786;10.120;2023-05-10T05:22:29;13.80;99.90
11043;DHT22;5574;48.786;10.120;2023-05-10T05:24:57;13.80;99.90
11043;DHT22;5574;48.786;10.120;2023-05-10T05:27:25;13.80;99.90
11043;DHT22;5574;48.786;10.120;2023-05-10T05:29:53;13.90;99.90
11043;DHT22;5574;48.786;10.120;2023-05-10T05:32:20;13.90;99.90
11043;DHT22;5574;48.786;10.120;2023-05-10T05:34:47;13.90;99.90
11043;DHT22;5574;48.786;10.120;2023-05-10T05:37:14;14.00;99.90
11043;DHT22;5574;48.786;10.120;2023-05-10T05:39:41;14.00;99.90
11043;DHT22;5574;48.786;10.120;2023-05-10T05:42:08;14.00;99.90
11043;DHT22;5574;48.786;10.120;2023-05-10T05:44:36;14.00;99.90
11043;DHT22;5574;48.786;10.120;2023-05-10T05:47:04;14.00;99.90
11043;DHT22;5574;48.786;10.120;2023-05-10T05:49:31;14.00;99.90
11043;DHT22;5574;48.786;10.120;2023-05-10T05:51:59;14.10;99.90
11043;DHT22;5574;48.786;10.120;2023-05-10T05:54:26;14.10;99.90
11043;DHT22;5574;48.786;10.120;2023-05-10T05:56:54;14.10;99.90
11043;DHT22;5574;48.786;10.120;2023-05-10T05:59:20;14.10;99.90
11043;DHT22;5574;48.786;10.120;2023-05-10T06:01:48;14.20;99.90
11043;DHT22;5574;48.786;10.120;2023-05-10T06:04:15;14.20;99.90
11043;DHT22;5574;48.786;10.120;2023-05-10T06:06:42;14.20;99.90
11043;DHT22;5574;48.786;10.120;2023-05-10T06:09:09;14.30;99.90
11043;DHT22;5574;48.786;10.120;2023-05-10T06:11:35;14.30;99.90
11043;DHT22;5574;48.786;10.120;2023-05-10T06:14:02;14.30;99.90
11043;DHT22;5574;48.786;10.120;2023-05-10T06:16:29;14.30;99.90
11043;DHT22;5574;48.786;10.120;2023-05-10T06:18:57;14.30;99.90
11043;DHT22;5574;48.786;10.120;2023-05-10T06:21:24;14.30;99.90
11043;DHT22;5574;48.786;10.120;2023-05-10T06:23:51;14.30;99.90
11043;DHT22;5574;48.786;10.120;2023-05-10T06:26:17;14.30;99.90
11043;DHT22;5574;48.786;10.120;2023-05-10T06:28:44;14.30;99.90
11043;DHT22;5574;48.786;10.120;2023-05-10T06:31:11;14.20;99.90
11043;DHT22;5574;48.786;10.120;2023-05-10T06:33:37;14.20;99.90
11043;DHT22;5574;48.786;10.120;2023-05-10T06:36:06;14.20;99.90
11043;DHT22;5574;48.786;10.120;2023-05-10T06:38:32;14.30;99.90
11043;DHT22;5574;48.786;10.120;2023-05-10T06:40:59;14.20;99.90
11043;DHT22;5574;48.786;10.120;2023-05-10T06:43:26;14.20;99.90
11043;DHT22;5574;48.786;10.120;2023-05-10T06:45:54;14.30;99.90
11043;DHT22;5574;48.786;10.120;2023-05-10T06:48:20;14.20;99.90
11043;DHT22;5574;48.786;10.120;2023-05-10T06:50:47;14.20;99.90
11043;DHT22;5574;48.786;10.120;2023-05-10T06:53:15;14.20;99.90
11043;DHT22;5574;48.786;10.120;2023-05-10T06:55:42;14.20;99.90
11043;DHT22;5574;48.786;10.120;2023-05-10T06:58:08;14.10;99.90
11043;DHT22;5574;48.786;10.120;2023-05-10T07:00:35;14.10;99.90
11043;DHT22;5574;48.786;10.120;2023-05-10T07:03:04;14.00;99.90
11043;DHT22;5574;48.786;10.120;2023-05-10T07:05:31;14.10;99.90
11043;DHT22;5574;48.786;10.120;2023-05-10T07:07:58;14.10;99.90
11043;DHT22;5574;48.786;10.120;2023-05-10T07:10:26;14.00;99.90
11043;DHT22;5574;48.786;10.120;2023-05-10T07:12:52;14.10;99.90
11043;DHT22;5574;48.786;10.120;2023-05-10T07:15:19;14.10;99.90
11043;DHT22;5574;48.786;10.120;2023-05-10T07:17:46;14.10;99.90
11043;DHT22;5574;48.786;10.120;2023-05-10T07:20:13;14.20;99.90
11043;DHT22;5574;48.786;10.120;2023-05-10T07:22:39;14.20;99.90
11043;DHT22;5574;48.786;10.120;2023-05-10T07:25:07;14.30;99.90
11043;DHT22;5574;48.786;10.120;2023-05-10T07:27:35;14.30;99.90
11043;DHT22;5574;48.786;10.120;2023-05-10T07:30:02;14.40;99.90
11043;DHT22;5574;48.786;10.120;2023-05-10T07:32:28;14.40;99.90
11043;DHT22;5574;48.786;10.120;2023-05-10T07:34:55;14.40;99.90
11043;DHT22;5574;48.786;10.120;2023-05-10T07:37:22;14.60;99.90
11043;DHT22;5574;48.786;10.120;2023-05-10T07:39:49;14.70;99.90
11043;DHT22;5574;48.786;10.120;2023-05-10T07:42:15;14.80;99.90
11043;DHT22;5574;48.786;10.120;2023-05-10T07:44:43;14.90;99.90
11043;DHT22;5574;48.786;10.120;2023-05-10T07:47:10;15.10;99.90
11043;DHT22;5574;48.786;10.120;2023-05-10T07:49:37;15.20;99.90
11043;DHT22;5574;48.786;10.120;2023-05-10T07:52:04;15.30;99.90
11043;DHT22;5574;48.786;10.120;2023-05-10T07:54:30;15.30;99.90
11043;DHT22;5574;48.786;10.120;2023-05-10T07:56:57;15.30;99.90
11043;DHT22;5574;48.786;10.120;2023-05-10T07:59:25;15.10;99.90
11043;DHT22;5574;48.786;10.120;2023-05-10T08:01:53;15.10;99.90
11043;DHT22;5574;48.786;10.120;2023-05-10T08:04:19;15.00;99.90
11043;DHT22;5574;48.786;10.120;2023-05-10T08:06:46;15.00;99.90
11043;DHT22;5574;48.786;10.120;2023-05-10T08:09:13;14.90;99.90
11043;DHT22;5574;48.786;10.120;2023-05-10T08:11:39;14.90;99.90
11043;DHT22;5574;48.786;10.120;2023-05-10T08:14:06;14.80;99.90
11043;DHT22;5574;48.786;10.120;2023-05-10T08:16:33;14.80;99.90
11043;DHT22;5574;48.786;10.120;2023-05-10T08:19:01;14.80;99.90
11043;DHT22;5574;48.786;10.120;2023-05-10T08:21:28;14.80;99.90
11043;DHT22;5574;48.786;10.120;2023-05-10T08:23:56;14.80;99.90
11043;DHT22;5574;48.786;10.120;2023-05-10T08:26:23;14.90;99.90
11043;DHT22;5574;48.786;10.120;2023-05-10T08:28:49;15.00;99.90
11043;DHT22;5574;48.786;10.120;2023-05-10T08:31:16;15.00;99.90
11043;DHT22;5574;48.786;10.120;2023-05-10T08:33:43;15.10;99.90
11043;DHT22;5574;48.786;10.120;2023-05-10T08:36:11;15.10;99.90
11043;DHT22;5574;48.786;10.120;2023-05-10T08:38:45;15.10;99.90
11043;DHT22;5574;48.786;10.120;2023-05-10T08:41:11;15.20;99.90
11043;DHT22;5574;48.786;10.120;2023-05-10T08:43:39;15.30;99.90
11043;DHT22;5574;48.786;10.120;2023-05-10T08:46:07;15.20;99.90
11043;DHT22;5574;48.786;10.120;2023-05-10T08:48:35;15.20;99.90
11043;DHT22;5574;48.786;10.120;2023-05-10T08:51:04;15.20;99.90
11043;DHT22;5574;48.786;10.120;2023-05-10T08:53:33;15.20;99.90
11043;DHT22;5574;48.786;10.120;2023-05-10T08:56:03;15.10;99.90
11043;DHT22;5574;48.786;10.120;2023-05-10T08:58:30;15.10;99.90
11043;DHT22;5574;48.786;10.120;2023-05-10T09:00:58;15.10;99.90
11043;DHT22;5574;48.786;10.120;2023-05-10T09:03:25;15.00;99.90
11043;DHT22;5574;48.786;10.120;2023-05-10T09:05:52;15.00;99.90
11043;DHT22;5574;48.786;10.120;2023-05-10T09:08:21;15.10;99.90
11043;DHT22;5574;48.786;10.120;2023-05-10T09:10:52;15.10;99.90
11043;DHT22;5574;48.786;10.120;2023-05-10T09:13:19;15.30;99.90
11043;DHT22;5574;48.786;10.120;2023-05-10T09:15:47;15.40;99.90
11043;DHT22;5574;48.786;10.120;2023-05-10T09:18:14;15.40;99.90
11043;DHT22;5574;48.786;10.120;2023-05-10T09:20:41;15.40;99.90
11043;DHT22;5574;48.786;10.120;2023-05-10T09:23:08;15.50;99.90
11043;DHT22;5574;48.786;10.120;2023-05-10T09:25:35;15.50;99.90
11043;DHT22;5574;48.786;10.120;2023-05-10T09:28:07;15.50;99.90
11043;DHT22;5574;48.786;10.120;2023-05-10T09:30:35;15.40;99.90
11043;DHT22;5574;48.786;10.120;2023-05-10T09:33:01;15.50;99.90
11043;DHT22;5574;48.786;10.120;2023-05-10T09:35:29;15.40;99.90
11043;DHT22;5574;48.786;10.120;2023-05-10T09:37:58;15.30;99.90
11043;DHT22;5574;48.786;10.120;2023-05-10T09:40:26;15.30;99.90
11043;DHT22;5574;48.786;10.120;2023-05-10T09:42:55;15.20;99.90
11043;DHT22;5574;48.786;10.120;2023-05-10T09:45:25;15.10;99.90
11043;DHT22;5574;48.786;10.120;2023-05-10T09:47:52;15.10;99.90
11043;DHT22;5574;48.786;10.120;2023-05-10T09:50:19;15.00;99.90
11043;DHT22;5574;48.786;10.120;2023-05-10T09:52:48;15.00;99.90
11043;DHT22;5574;48.786;10.120;2023-05-10T09:55:15;15.00;99.90
11043;DHT22;5574;48.786;10.120;2023-05-10T09:57:42;14.90;99.90
11043;DHT22;5574;48.786;10.120;2023-05-10T10:00:09;14.90;99.90
11043;DHT22;5574;48.786;10.120;2023-05-10T10:02:38;14.90;99.90
11043;DHT22;5574;48.786;10.120;2023-05-10T10:05:06;14.90;99.90
11043;DHT22;5574;48.786;10.120;2023-05-10T10:07:34;14.90;99.90
11043;DHT22;5574;48.786;10.120;2023-05-10T10:10:01;14.90;99.90
11043;DHT22;5574;48.786;10.120;2023-05-10T10:12:28;14.90;99.90
11043;DHT22;5574;48.786;10.120;2023-05-10T10:14:55;14.90;99.90
11043;DHT22;5574;48.786;10.120;2023-05-10T10:17:24;14.90;99.90
11043;DHT22;5574;48.786;10.120;2023-05-10T10:19:52;15.00;99.90
11043;DHT22;5574;48.786;10.120;2023-05-10T10:22:19;14.90;99.90
11043;DHT22;5574;48.786;10.120;2023-05-10T10:24:46;14.90;99.90
11043;DHT22;5574;48.786;10.120;2023-05-10T10:27:20;14.80;99.90
11043;DHT22;5574;48.786;10.120;2023-05-10T10:29:57;14.80;99.90
11043;DHT22;5574;48.786;10.120;2023-05-10T10:32:30;14.70;99.90
11043;DHT22;5574;48.786;10.120;2023-05-10T10:35:03;14.70;99.90
11043;DHT22;5574;48.786;10.120;2023-05-10T10:37:44;14.70;99.90
11043;DHT22;5574;48.786;10.120;2023-05-10T10:40:24;14.80;99.90
11043;DHT22;5574;48.786;10.120;2023-05-10T10:42:52;14.80;99.90
11043;DHT22;5574;48.786;10.120;2023-05-10T10:45:20;14.80;99.90
11043;DHT22;5574;48.786;10.120;2023-05-10T10:47:47;14.80;99.90
11043;DHT22;5574;48.786;10.120;2023-05-10T10:50:16;14.80;99.90
11043;DHT22;5574;48.786;10.120;2023-05-10T10:52:43;14.80;99.90
11043;DHT22;5574;48.786;10.120;2023-05-10T10:55:12;14.80;99.90
11043;DHT22;5574;48.786;10.120;2023-05-10T10:57:44;14.80;99.90
11043;DHT22;5574;48.786;10.120;2023-05-10T11:00:20;14.70;99.90
11043;DHT22;5574;48.786;10.120;2023-05-10T11:02:50;14.70;99.90
11043;DHT22;5574;48.786;10.120;2023-05-10T11:05:37;14.70;99.90
11043;DHT22;5574;48.786;10.120;2023-05-10T11:08:18;14.80;99.90
11043;DHT22;5574;48.786;10.120;2023-05-10T11:10:53;15.00;99.90
11043;DHT22;5574;48.786;10.120;2023-05-10T11:13:30;15.00;99.90
11043;DHT22;5574;48.786;10.120;2023-05-10T11:15:56;15.20;99.90
11043;DHT22;5574;48.786;10.120;2023-05-10T11:18:25;15.20;99.90
11043;DHT22;5574;48.786;10.120;2023-05-10T11:20:57;15.20;99.90
11043;DHT22;5574;48.786;10.120;2023-05-10T11:23:30;15.20;99.90
11043;DHT22;5574;48.786;10.120;2023-05-10T11:25:57;15.30;99.90
11043;DHT22;5574;48.786;10.120;2023-05-10T11:28:24;15.30;99.90
11043;DHT22;5574;48.786;10.120;2023-05-10T11:30:52;15.40;99.90
11043;DHT22;5574;48.786;10.120;2023-05-10T11:33:19;15.50;99.90
11043;DHT22;5574;48.786;10.120;2023-05-10T11:35:46;15.50;99.90
11043;DHT22;5574;48.786;10.120;2023-05-10T11:38:14;15.60;99.90
11043;DHT22;5574;48.786;10.120;2023-05-10T11:40:41;15.70;99.90
11043;DHT22;5574;48.786;10.120;2023-05-10T11:43:09;15.60;99.90
11043;DHT22;5574;48.786;10.120;2023-05-10T11:45:36;15.70;99.90
11043;DHT22;5574;48.786;10.120;2023-05-10T11:48:03;15.70;99.90
11043;DHT22;5574;48.786;10.120;2023-05-10T11:50:30;15.60;99.90
11043;DHT22;5574;48.786;10.120;2023-05-10T11:52:57;15.60;99.90
11043;DHT22;5574;48.786;10.120;2023-05-10T11:55:25;15.50;99.90
11043;DHT22;5574;48.786;10.120;2023-05-10T11:57:52;15.40;99.90
11043;DHT22;5574;48.786;10.120;2023-05-10T12:00:19;15.40;99.90
11043;DHT22;5574;48.786;10.120;2023-05-10T12:02:46;15.40;99.90
11043;DHT22;5574;48.786;10.120;2023-05-10T12:05:13;15.40;99.90
11043;DHT22;5574;48.786;10.120;2023-05-10T12:07:40;15.40;99.90
11043;DHT22;5574;48.786;10.120;2023-05-10T12:10:08;15.40;99.90
11043;DHT22;5574;48.786;10.120;2023-05-10T12:12:38;15.40;99.90
11043;DHT22;5574;48.786;10.120;2023-05-10T12:15:10;15.40;99.90
11043;DHT22;5574;48.786;10.120;2023-05-10T12:17:38;15.30;99.90
11043;DHT22;5574;48.786;10.120;2023-05-10T12:20:19;15.30;99.90
11043;DHT22;5574;48.786;10.120;2023-05-10T12:22:47;15.30;99.90
11043;DHT22;5574;48.786;10.120;2023-05-10T12:25:16;15.20;99.90
11043;DHT22;5574;48.786;10.120;2023-05-10T12:27:49;15.20;99.90
11043;DHT22;5574;48.786;10.120;2023-05-10T12:30:21;15.10;99.90
11043;DHT22;5574;48.786;10.120;2023-05-10T12:32:48;15.00;99.90
11043;DHT22;5574;48.786;10.120;2023-05-10T12:35:15;14.90;99.90
11043;DHT22;5574;48.786;10.120;2023-05-10T12:37:42;14.90;99.90
11043;DHT22;5574;48.786;10.120;2023-05-10T12:40:10;14.90;99.90
11043;DHT22;5574;48.786;10.120;2023-05-10T12:42:38;14.80;99.90
11043;DHT22;5574;48.786;10.120;2023-05-10T12:45:08;14.80;99.90
11043;DHT22;5574;48.786;10.120;2023-05-10T12:47:35;14.80;99.90
11043;DHT22;5574;48.786;10.120;2023-05-10T12:50:02;14.90;99.90
11043;DHT22;5574;48.786;10.120;2023-05-10T12:52:30;14.90;99.90
11043;DHT22;5574;48.786;10.120;2023-05-10T12:54:57;14.90;99.90
11043;DHT22;5574;48.786;10.120;2023-05-10T12:57:24;14.90;99.90
11043;DHT22;5574;48.786;10.120;2023-05-10T12:59:51;14.80;99.90
11043;DHT22;5574;48.786;10.120;2023-05-10T13:02:19;14.80;99.90
11043;DHT22;5574;48.786;10.120;2023-05-10T13:04:46;14.90;99.90
11043;DHT22;5574;48.786;10.120;2023-05-10T13:07:13;14.90;99.90
11043;DHT22;5574;48.786;10.120;2023-05-10T13:09:40;14.90;99.90
11043;DHT22;5574;48.786;10.120;2023-05-10T13:12:06;14.80;99.90
11043;DHT22;5574;48.786;10.120;2023-05-10T13:14:33;14.80;99.90
11043;DHT22;5574;48.786;10.120;2023-05-10T13:17:00;14.70;99.90
11043;DHT22;5574;48.786;10.120;2023-05-10T13:19:28;14.60;99.90
11043;DHT22;5574;48.786;10.120;2023-05-10T13:21:55;14.60;99.90
11043;DHT22;5574;48.786;10.120;2023-05-10T13:24:21;14.50;99.90
11043;DHT22;5574;48.786;10.120;2023-05-10T13:26:48;14.60;99.90
11043;DHT22;5574;48.786;10.120;2023-05-10T13:29:15;14.60;99.90
11043;DHT22;5574;48.786;10.120;2023-05-10T13:31:43;14.50;99.90
11043;DHT22;5574;48.786;10.120;2023-05-10T13:34:10;14.60;99.90
11043;DHT22;5574;48.786;10.120;2023-05-10T13:36:38;14.50;99.90
11043;DHT22;5574;48.786;10.120;2023-05-10T13:39:05;14.50;99.90
11043;DHT22;5574;48.786;10.120;2023-05-10T13:41:31;14.50;99.90
11043;DHT22;5574;48.786;10.120;2023-05-10T13:43:58;14.50;99.90
11043;DHT22;5574;48.786;10.120;2023-05-10T13:46:25;14.50;99.90
11043;DHT22;5574;48.786;10.120;2023-05-10T13:48:51;14.50;99.90
11043;DHT22;5574;48.786;10.120;2023-05-10T13:51:19;14.50;99.90
11043;DHT22;5574;48.786;10.120;2023-05-10T13:53:47;14.50;99.90
11043;DHT22;5574;48.786;10.120;2023-05-10T13:56:14;14.40;99.90
11043;DHT22;5574;48.786;10.120;2023-05-10T13:58:41;14.40;99.90
11043;DHT22;5574;48.786;10.120;2023-05-10T14:01:08;14.40;99.90
11043;DHT22;5574;48.786;10.120;2023-05-10T14:03:34;14.40;99.90
11043;DHT22;5574;48.786;10.120;2023-05-10T14:06:01;14.40;99.90
11043;DHT22;5574;48.786;10.120;2023-05-10T14:08:28;14.40;99.90
11043;DHT22;5574;48.786;10.120;2023-05-10T14:10:56;14.50;99.90
11043;DHT22;5574;48.786;10.120;2023-05-10T14:13:23;14.60;99.90
11043;DHT22;5574;48.786;10.120;2023-05-10T14:15:52;14.60;99.90
11043;DHT22;5574;48.786;10.120;2023-05-10T14:18:19;14.60;99.90
11043;DHT22;5574;48.786;10.120;2023-05-10T14:20:45;14.60;99.90
11043;DHT22;5574;48.786;10.120;2023-05-10T14:23:12;14.60;99.90
11043;DHT22;5574;48.786;10.120;2023-05-10T14:25:39;14.70;99.90
11043;DHT22;5574;48.786;10.120;2023-05-10T14:28:07;14.70;99.90
11043;DHT22;5574;48.786;10.120;2023-05-10T14:30:34;14.70;99.90
11043;DHT22;5574;48.786;10.120;2023-05-10T14:33:02;14.70;99.90
11043;DHT22;5574;48.786;10.120;2023-05-10T14:35:29;14.60;99.90
11043;DHT22;5574;48.786;10.120;2023-05-10T14:37:56;14.60;99.90
11043;DHT22;5574;48.786;10.120;2023-05-10T14:40:23;14.60;99.90
11043;DHT22;5574;48.786;10.120;2023-05-10T14:42:50;14.70;99.90
11043;DHT22;5574;48.786;10.120;2023-05-10T14:45:20;14.70;99.90
11043;DHT22;5574;48.786;10.120;2023-05-10T14:47:46;14.70;99.90
11043;DHT22;5574;48.786;10.120;2023-05-10T14:50:13;14.70;99.90
11043;DHT22;5574;48.786;10.120;2023-05-10T14:52:40;14.60;99.90
11043;DHT22;5574;48.786;10.120;2023-05-10T14:55:08;14.60;99.90
11043;DHT22;5574;48.786;10.120;2023-05-10T14:57:34;14.60;99.90
11043;DHT22;5574;48.786;10.120;2023-05-10T15:00:02;14.60;99.90
11043;DHT22;5574;48.786;10.120;2023-05-10T15:02:30;14.60;99.90
11043;DHT22;5574;48.786;10.120;2023-05-10T15:04:57;14.50;99.90
11043;DHT22;5574;48.786;10.120;2023-05-10T15:07:24;14.60;99.90
11043;DHT22;5574;48.786;10.120;2023-05-10T15:09:50;14.50;99.90
11043;DHT22;5574;48.786;10.120;2023-05-10T15:12:17;14.60;99.90
11043;DHT22;5574;48.786;10.120;2023-05-10T15:14:44;14.50;99.90
11043;DHT22;5574;48.786;10.120;2023-05-10T15:17:11;14.60;99.90
11043;DHT22;5574;48.786;10.120;2023-05-10T15:19:39;14.50;99.90
11043;DHT22;5574;48.786;10.120;2023-05-10T15:22:05;14.60;99.90
11043;DHT22;5574;48.786;10.120;2023-05-10T15:24:32;14.70;99.90
11043;DHT22;5574;48.786;10.120;2023-05-10T15:26:59;14.70;99.90
11043;DHT22;5574;48.786;10.120;2023-05-10T15:29:26;14.70;99.90
11043;DHT22;5574;48.786;10.120;2023-05-10T15:31:53;14.70;99.90
11043;DHT22;5574;48.786;10.120;2023-05-10T15:34:19;14.70;99.90
11043;DHT22;5574;48.786;10.120;2023-05-10T15:36:47;14.70;99.90